Time;durP1;ratioP1;P1;durP2;ratioP2;P2;SDS_P1;SDS_P2;PMS_P1;PMS_P2;Temp;Humidity;BMP_temperature;BMP_pressure;BME280_temperature;BME280_humidity;BME280_pressure;Samples;Min_cycle;Max_cycle;Signal;HPM_P1;HPM_P2
2022/11/25 00:01:33;;;;;;;0.03;0.03;;;6.50;99.90;4.70;95859.00;;;;5033101;28;20188;-74
2022/11/25 00:04:02;;;;;;;0.10;0.10;;;6.50;99.90;4.70;95774.00;;;;5033240;28;20218;-74
2022/11/25 00:06:32;;;;;;;0.10;0.10;;;6.40;99.90;4.70;95868.00;;;;5032928;28;20278;-74
2022/11/25 00:09:05;;;;;;;0.10;0.10;;;6.40;99.90;4.50;95862.00;;;;5032715;28;20187;-75
2022/11/25 00:11:36;;;;;;;0.10;0.10;;;6.30;99.90;4.50;95831.00;;;;5033132;28;20581;-72
2022/11/25 00:14:05;;;;;;;0.10;0.10;;;6.20;99.90;4.40;95805.00;;;;5033036;28;20627;-72
2022/11/25 00:16:34;;;;;;;0.10;0.10;;;6.20;99.90;4.40;95846.00;;;;5032752;28;20223;-73
2022/11/25 00:19:02;;;;;;;0.10;0.10;;;6.20;99.90;4.40;95847.00;;;;5032712;28;20214;-72
2022/11/25 00:21:33;;;;;;;0.10;0.10;;;6.10;99.90;4.30;95788.00;;;;5032608;28;20191;-72
2022/11/25 00:24:06;;;;;;;0.10;0.10;;;6.00;99.90;4.20;95826.00;;;;5032913;28;20745;-72
2022/11/25 00:26:36;;;;;;;0.05;0.05;;;5.90;99.90;4.20;95841.00;;;;5032968;28;20198;-72
2022/11/25 00:29:09;;;;;;;0.10;0.10;;;6.00;99.90;4.10;95834.00;;;;5032189;28;20222;-75
2022/11/25 00:31:39;;;;;;;0.10;0.10;;;5.80;99.90;4.00;95759.00;;;;5035095;28;20195;-75
2022/11/25 00:34:12;;;;;;;0.03;0.03;;;5.70;99.90;4.00;95807.00;;;;5037618;28;20215;-75
2022/11/25 00:36:40;;;;;;;0.00;0.00;;;5.70;99.90;4.00;95805.00;;;;5034070;28;20218;-74
2022/11/25 00:39:13;;;;;;;0.00;0.00;;;5.70;99.90;4.00;95834.00;;;;5047389;28;20199;-75
2022/11/25 00:44:39;;;;;;;0.10;0.10;;;5.70;99.90;3.80;95862.00;;;;5032469;28;20229;-72
2022/11/25 00:47:12;;;;;;;0.10;0.10;;;5.50;99.90;3.70;95927.00;;;;5032477;28;20724;-72
2022/11/25 00:49:44;;;;;;;0.10;0.10;;;5.30;99.90;3.60;96000.00;;;;5047541;28;20249;-73
2022/11/25 00:52:16;;;;;;;0.10;0.10;;;5.30;99.90;3.60;95928.00;;;;5031868;28;20197;-73
2022/11/25 00:54:47;;;;;;;0.10;0.10;;;5.30;99.90;3.50;95921.00;;;;5032267;28;20605;-73
2022/11/25 00:57:18;;;;;;;0.10;0.10;;;5.30;99.90;3.70;95975.00;;;;5032337;28;20234;-73
2022/11/25 00:59:46;;;;;;;0.10;0.10;;;5.30;99.90;3.60;95976.00;;;;5030847;28;20226;-73
2022/11/25 01:02:17;;;;;;;0.10;0.10;;;5.30;99.90;3.60;95898.00;;;;5031753;28;20563;-73
2022/11/25 01:04:45;;;;;;;0.10;0.10;;;5.30;99.90;3.60;95932.00;;;;5032822;28;20222;-74
2022/11/25 01:07:18;;;;;;;0.10;0.10;;;5.20;99.90;3.60;95941.00;;;;5047899;28;20202;-75
2022/11/25 01:09:49;;;;;;;0.10;0.10;;;5.30;99.90;3.60;95932.00;;;;5031893;28;20195;-75
2022/11/25 01:12:17;;;;;;;0.10;0.10;;;5.20;99.90;3.50;95808.00;;;;5030679;28;20207;-75
2022/11/25 01:14:45;;;;;;;0.10;0.10;;;5.20;99.90;3.50;95785.00;;;;5033874;28;20215;-75
2022/11/25 01:17:14;;;;;;;0.10;0.10;;;5.20;99.90;3.40;95797.00;;;;5033184;28;20223;-74
2022/11/25 01:19:42;;;;;;;0.10;0.10;;;5.10;99.90;3.50;95815.00;;;;5031831;28;20203;-75
2022/11/25 01:22:10;;;;;;;0.10;0.10;;;5.20;99.90;3.40;95829.00;;;;5033170;28;20655;-75
2022/11/25 01:24:38;;;;;;;0.10;0.10;;;5.10;99.90;3.40;95825.00;;;;5034117;28;20214;-75
2022/11/25 01:27:08;;;;;;;0.08;0.08;;;5.10;99.90;3.40;95814.00;;;;5033664;28;20203;-75
2022/11/25 01:29:36;;;;;;;0.10;0.10;;;5.10;99.90;3.40;95863.00;;;;5046599;28;20226;-76
2022/11/25 01:32:04;;;;;;;0.10;0.10;;;5.10;99.90;3.50;94281.00;;;;5031488;28;20191;-75
2022/11/25 01:34:33;;;;;;;0.10;0.10;;;5.10;99.90;3.20;94513.00;;;;5046734;28;20227;-75
2022/11/25 01:37:01;;;;;;;0.00;0.00;;;4.90;99.90;3.20;95919.00;;;;5046910;28;20231;-75
2022/11/25 01:39:30;;;;;;;0.10;0.10;;;5.00;99.90;3.20;95860.00;;;;5031174;28;20605;-75
2022/11/25 01:42:01;;;;;;;0.10;0.10;;;4.90;99.90;2.80;95842.00;;;;5033602;28;20223;-75
2022/11/25 01:44:32;;;;;;;0.10;0.10;;;4.80;99.90;3.10;95841.00;;;;5035596;28;20207;-76
2022/11/25 01:47:11;;;;;;;0.10;0.10;;;4.80;99.90;3.10;95874.00;;;;5035885;28;20197;-75
2022/11/25 01:49:44;;;;;;;0.10;0.10;;;4.80;99.90;3.10;95958.00;;;;5033981;28;20202;-75
2022/11/25 01:52:20;;;;;;;0.00;0.00;;;4.80;99.90;3.10;95874.00;;;;5035304;28;20195;-75
2022/11/25 01:54:55;;;;;;;0.10;0.10;;;4.80;99.90;3.10;95906.00;;;;5034656;28;20211;-75
2022/11/25 01:57:31;;;;;;;0.10;0.10;;;4.80;99.90;3.00;95916.00;;;;5031506;28;20222;-75
2022/11/25 02:00:06;;;;;;;0.10;0.10;;;4.70;99.90;3.00;95921.00;;;;5030656;28;20724;-75
2022/11/25 02:02:46;;;;;;;0.10;0.10;;;4.80;99.90;3.10;95901.00;;;;5031026;28;20211;-76
2022/11/25 02:05:20;;;;;;;0.10;0.10;;;4.80;99.90;3.10;95903.00;;;;5017593;28;20290;-75
2022/11/25 02:07:52;;;;;;;0.10;0.10;;;4.80;99.90;3.10;95909.00;;;;5014114;28;20198;-76
2022/11/25 02:10:27;;;;;;;0.10;0.10;;;4.80;99.90;3.10;95915.00;;;;5014136;28;20660;-76
2022/11/25 02:12:57;;;;;;;0.10;0.10;;;4.80;99.90;3.00;95897.00;;;;5030950;28;20218;-75
2022/11/25 02:15:29;;;;;;;0.08;0.08;;;4.70;99.90;3.00;95901.00;;;;5021734;28;20207;-75
2022/11/25 02:17:57;;;;;;;0.08;0.08;;;4.70;99.90;2.90;95890.00;;;;5017766;28;20220;-75
2022/11/25 02:20:26;;;;;;;0.10;0.10;;;4.70;99.90;3.00;95901.00;;;;5015219;28;20242;-76
2022/11/25 02:23:05;;;;;;;0.10;0.10;;;4.70;99.90;3.00;95928.00;;;;5015266;28;20210;-76
2022/11/25 02:25:37;;;;;;;0.10;0.10;;;4.70;99.90;2.60;95926.00;;;;5030366;28;20199;-76
2022/11/25 02:28:15;;;;;;;0.10;0.10;;;4.80;99.90;3.00;95925.00;;;;5013458;28;20710;-76
2022/11/25 02:30:45;;;;;;;0.10;0.10;;;4.70;99.90;3.00;95825.00;;;;5030208;28;20281;-76
2022/11/25 02:33:14;;;;;;;0.10;0.10;;;4.80;99.90;3.10;95826.00;;;;5029975;28;20285;-75
2022/11/25 02:35:48;;;;;;;0.10;0.10;;;4.80;99.90;3.10;95857.00;;;;5030203;28;20234;-76
2022/11/25 02:38:23;;;;;;;0.10;0.10;;;4.90;99.90;3.00;95904.00;;;;5013353;28;20231;-76
2022/11/25 02:40:59;;;;;;;0.10;0.10;;;4.80;99.90;3.00;95930.00;;;;5029953;28;20207;-76
2022/11/25 02:43:28;;;;;;;0.10;0.10;;;4.70;99.90;2.90;95908.00;;;;5013477;28;20273;-76
2022/11/25 02:46:00;;;;;;;0.10;0.10;;;4.80;99.90;3.00;95941.00;;;;5015063;28;20195;-76
2022/11/25 02:48:32;;;;;;;0.10;0.10;;;4.80;99.90;3.00;95981.00;;;;5013169;28;20200;-76
2022/11/25 02:51:26;;;;;;;0.10;0.10;;;4.90;99.90;2.80;95864.00;;;;5013508;28;20223;-75
2022/11/25 02:53:55;;;;;;;0.10;0.10;;;4.60;99.90;2.70;95875.00;;;;5014110;28;20211;-77
2022/11/25 02:56:29;;;;;;;0.10;0.10;;;4.50;99.90;2.50;95851.00;;;;5029974;28;20203;-76
2022/11/25 02:58:58;;;;;;;0.10;0.10;;;4.40;99.90;2.70;95882.00;;;;5013129;28;20228;-76
2022/11/25 03:01:30;;;;;;;0.10;0.10;;;4.50;99.90;2.60;95842.00;;;;5029688;28;20699;-75
2022/11/25 03:03:59;;;;;;;0.10;0.10;;;4.50;99.90;2.50;95788.00;;;;5014480;28;20295;-75
2022/11/25 03:06:28;;;;;;;0.10;0.10;;;4.40;99.90;2.50;95791.00;;;;5014208;28;20196;-75
2022/11/25 03:08:56;;;;;;;0.10;0.10;;;4.40;99.90;2.50;95803.00;;;;5029412;28;20199;-75
2022/11/25 03:14:10;;;;;;;0.10;0.10;;;4.40;99.90;2.60;95777.00;;;;5013220;28;20227;-73
2022/11/25 03:16:38;;;;;;;0.00;0.00;;;4.40;99.90;2.50;95793.00;;;;5013509;28;20184;-74
2022/11/25 03:19:07;;;;;;;0.10;0.10;;;4.30;99.90;2.40;95718.00;;;;5029112;28;20230;-74
2022/11/25 03:21:35;;;;;;;0.00;0.00;;;4.30;99.90;2.30;95756.00;;;;5029300;28;20196;-74
2022/11/25 03:24:04;;;;;;;0.10;0.10;;;4.20;99.90;2.30;95863.00;;;;5029241;28;20229;-74
2022/11/25 03:26:34;;;;;;;0.10;0.10;;;4.20;99.90;2.40;95773.00;;;;5014331;28;20246;-74
2022/11/25 03:29:02;;;;;;;0.10;0.10;;;4.20;99.90;2.40;95765.00;;;;5012277;28;20226;-74
2022/11/25 03:31:30;;;;;;;0.10;0.10;;;4.20;99.90;2.30;95721.00;;;;5028955;28;20212;-75
2022/11/25 03:33:59;;;;;;;0.00;0.00;;;4.10;99.90;2.40;95725.00;;;;5029137;28;20302;-74
2022/11/25 03:36:27;;;;;;;0.10;0.10;;;4.20;99.90;2.50;95727.00;;;;5029673;28;20196;-74
2022/11/25 03:38:55;;;;;;;0.08;0.08;;;4.20;99.90;2.40;95658.00;;;;5012316;28;20238;-74
2022/11/25 03:41:23;;;;;;;0.10;0.10;;;4.20;99.90;2.40;95705.00;;;;5028973;28;20286;-74
2022/11/25 03:43:54;;;;;;;0.10;0.10;;;4.20;99.90;2.40;95615.00;;;;5012215;28;20226;-76
2022/11/25 03:46:23;;;;;;;0.10;0.10;;;4.10;99.90;2.30;95620.00;;;;5028797;28;20203;-74
2022/11/25 03:48:54;;;;;;;0.10;0.10;;;4.10;99.90;2.30;95628.00;;;;5013439;28;20613;-74
2022/11/25 03:51:23;;;;;;;0.10;0.10;;;4.10;99.90;2.10;95623.00;;;;5028670;28;20626;-74
2022/11/25 03:53:53;;;;;;;0.10;0.10;;;4.00;99.90;2.10;95468.00;;;;5012299;28;20212;-74
2022/11/25 03:56:23;;;;;;;0.10;0.10;;;3.90;99.90;2.10;95688.00;;;;5029022;28;20672;-74
2022/11/25 03:58:52;;;;;;;0.10;0.10;;;3.90;99.90;2.10;95819.00;;;;5028532;28;20227;-76
2022/11/25 04:01:22;;;;;;;0.10;0.10;;;3.90;99.90;2.20;95846.00;;;;5028953;28;20208;-74
2022/11/25 04:03:50;;;;;;;0.00;0.00;;;3.90;99.90;2.20;95780.00;;;;5011408;28;20216;-76
2022/11/25 04:06:20;;;;;;;0.10;0.10;;;4.00;99.90;2.30;95834.00;;;;5013691;28;20195;-74
2022/11/25 04:08:49;;;;;;;0.10;0.10;;;4.10;99.90;2.50;95853.00;;;;5028616;28;20199;-74
2022/11/25 04:11:18;;;;;;;0.10;0.10;;;4.20;99.90;2.60;95747.00;;;;5028200;28;20204;-76
2022/11/25 04:13:49;;;;;;;0.10;0.10;;;4.30;99.90;2.60;95762.00;;;;5011947;28;20574;-76
2022/11/25 04:16:24;;;;;;;0.10;0.10;;;4.30;99.90;2.60;95732.00;;;;5028359;28;20630;-76
2022/11/25 04:18:54;;;;;;;0.10;0.10;;;4.30;99.90;2.60;95739.00;;;;5011713;28;20243;-74
2022/11/25 04:21:23;;;;;;;0.10;0.10;;;4.30;99.90;2.60;95754.00;;;;5028273;28;20192;-74
2022/11/25 04:23:52;;;;;;;0.10;0.10;;;4.40;99.90;2.60;95723.00;;;;5028276;28;20211;-74
2022/11/25 04:26:21;;;;;;;0.10;0.10;;;4.40;99.90;2.70;95733.00;;;;5012091;28;20199;-76
2022/11/25 04:28:49;;;;;;;0.10;0.10;;;4.40;99.90;2.70;95732.00;;;;5013483;28;20200;-75
2022/11/25 04:31:22;;;;;;;0.10;0.10;;;4.40;99.90;2.70;95739.00;;;;5011676;28;20196;-77
2022/11/25 04:33:50;;;;;;;0.08;0.08;;;4.40;99.90;2.60;95703.00;;;;5028094;28;20238;-75
2022/11/25 04:36:22;;;;;;;0.08;0.08;;;4.40;99.90;2.50;95700.00;;;;5028074;28;20199;-75
2022/11/25 04:38:50;;;;;;;0.10;0.10;;;4.30;99.90;2.60;95708.00;;;;5027832;28;20228;-75
2022/11/25 04:41:22;;;;;;;0.10;0.10;;;4.30;99.90;2.50;95701.00;;;;5037033;28;20194;-76
2022/11/25 04:43:50;;;;;;;0.10;0.10;;;4.30;99.90;2.50;95724.00;;;;5031246;28;20219;-76
2022/11/25 04:46:24;;;;;;;0.10;0.10;;;4.20;99.90;2.40;95733.00;;;;5031223;28;20203;-75
2022/11/25 04:48:55;;;;;;;0.10;0.10;;;4.20;99.90;2.40;95723.00;;;;5056306;28;20262;-75
2022/11/25 04:51:23;;;;;;;0.10;0.10;;;4.20;99.90;2.30;95728.00;;;;5051766;28;20675;-75
2022/11/25 04:53:57;;;;;;;0.00;0.00;;;4.10;99.90;2.30;95714.00;;;;5048965;28;20253;-75
2022/11/25 04:56:25;;;;;;;0.10;0.10;;;4.00;99.90;2.30;95722.00;;;;5048449;28;20209;-75
2022/11/25 05:01:46;;;;;;;0.03;0.03;;;4.00;99.90;2.30;95731.00;;;;5061084;28;20229;-74
2022/11/25 05:04:34;;;;;;;0.00;0.00;;;4.00;99.90;2.30;95733.00;;;;5045318;28;20222;-77
2022/11/25 05:07:03;;;;;;;0.10;0.10;;;4.00;99.90;2.30;95744.00;;;;5044066;28;20199;-74
2022/11/25 05:09:31;;;;;;;0.10;0.10;;;4.00;99.90;2.30;95773.00;;;;5031136;28;20612;-77
2022/11/25 05:12:08;;;;;;;0.10;0.10;;;4.10;99.90;2.20;95716.00;;;;5031213;28;20203;-75
2022/11/25 05:14:37;;;;;;;0.10;0.10;;;4.00;99.90;2.20;95752.00;;;;5030620;28;20219;-76
2022/11/25 05:17:10;;;;;;;0.10;0.10;;;4.00;99.90;2.20;95730.00;;;;5030329;28;20209;-76
2022/11/25 05:19:38;;;;;;;0.10;0.10;;;4.00;99.90;2.20;95778.00;;;;5031739;28;20211;-76
2022/11/25 05:22:10;;;;;;;0.10;0.10;;;4.00;99.90;2.30;95748.00;;;;5030990;28;20199;-76
2022/11/25 05:24:40;;;;;;;0.10;0.10;;;4.00;99.90;2.30;95677.00;;;;5030490;28;20322;-76
2022/11/25 05:27:09;;;;;;;0.10;0.10;;;4.00;99.90;2.30;95701.00;;;;5030271;28;20199;-75
2022/11/25 05:29:37;;;;;;;0.10;0.10;;;4.00;99.90;2.30;95711.00;;;;5031299;28;20290;-75
2022/11/25 05:32:09;;;;;;;0.10;0.10;;;4.00;99.90;2.30;95684.00;;;;5030545;28;20256;-75
2022/11/25 05:34:38;;;;;;;0.10;0.10;;;4.00;99.90;2.20;95736.00;;;;5030281;28;20720;-76
2022/11/25 05:37:09;;;;;;;0.10;0.10;;;3.90;99.90;2.10;95722.00;;;;5030704;28;20701;-75
2022/11/25 05:39:39;;;;;;;0.10;0.10;;;3.90;99.90;2.00;95715.00;;;;5030249;28;20265;-75
2022/11/25 05:42:16;;;;;;;0.10;0.10;;;3.80;99.90;2.00;95707.00;;;;5033792;28;20195;-76
2022/11/25 05:44:45;;;;;;;0.10;0.10;;;3.80;99.90;2.10;95691.00;;;;5032632;28;20219;-75
2022/11/25 05:47:15;;;;;;;0.10;0.10;;;3.90;99.90;2.10;95722.00;;;;5031554;28;20253;-75
2022/11/25 05:49:44;;;;;;;0.10;0.10;;;3.80;99.90;2.10;95705.00;;;;5032788;28;20222;-75
2022/11/25 05:52:13;;;;;;;0.05;0.05;;;3.80;99.90;2.00;95703.00;;;;5048267;28;20198;-76
2022/11/25 05:54:49;;;;;;;0.08;0.08;;;3.70;99.90;1.80;95664.00;;;;5031276;28;20301;-76
2022/11/25 05:57:24;;;;;;;0.10;0.10;;;3.60;99.90;1.70;95654.00;;;;5032443;28;20195;-76
2022/11/25 05:59:56;;;;;;;0.10;0.10;;;3.50;99.90;1.70;95664.00;;;;5030407;28;20223;-75
2022/11/25 06:02:42;;;;;;;0.10;0.10;;;3.50;99.90;1.70;95645.00;;;;5033912;28;20199;-76
2022/11/25 06:05:15;;;;;;;0.10;0.10;;;3.40;99.90;1.60;95644.00;;;;5032125;28;20200;-75
2022/11/25 06:07:43;;;;;;;0.10;0.10;;;3.40;99.90;1.70;95684.00;;;;5030344;28;20269;-75
2022/11/25 06:10:12;;;;;;;0.10;0.10;;;3.40;99.90;1.60;95670.00;;;;5030004;28;20286;-75
2022/11/25 06:12:41;;;;;;;0.10;0.10;;;3.40;99.90;1.50;95544.00;;;;5029707;28;20195;-75
2022/11/25 06:15:11;;;;;;;0.10;0.10;;;3.30;99.90;1.50;95629.00;;;;5029731;28;20203;-75
2022/11/25 06:17:41;;;;;;;0.10;0.10;;;3.30;99.90;1.50;95657.00;;;;5029841;28;20550;-75
2022/11/25 06:20:21;;;;;;;0.10;0.10;;;3.30;99.90;1.60;95687.00;;;;5029896;28;20380;-75
2022/11/25 06:22:49;;;;;;;0.10;0.10;;;3.40;99.90;1.50;95656.00;;;;5030997;28;20674;-75
2022/11/25 06:25:22;;;;;;;0.00;0.00;;;3.30;99.90;1.40;95621.00;;;;5031353;28;20841;-75
2022/11/25 06:27:52;;;;;;;0.10;0.10;;;3.30;99.90;1.50;95628.00;;;;5031110;28;20199;-75
2022/11/25 06:30:41;;;;;;;0.10;0.10;;;3.30;99.90;1.50;95634.00;;;;5033739;28;20194;-75
2022/11/25 06:33:28;;;;;;;0.10;0.10;;;3.30;99.90;1.60;95649.00;;;;5033322;28;20237;-75
2022/11/25 06:36:03;;;;;;;0.10;0.10;;;3.30;99.90;1.60;95668.00;;;;5033680;28;20198;-75
2022/11/25 06:38:32;;;;;;;0.10;0.10;;;3.40;99.90;1.60;95664.00;;;;5036124;28;20241;-75
2022/11/25 06:41:01;;;;;;;0.10;0.10;;;3.40;99.90;1.60;95692.00;;;;5035454;28;20240;-75
2022/11/25 06:43:30;;;;;;;0.10;0.10;;;3.40;99.90;1.60;95689.00;;;;5034196;28;20207;-75
2022/11/25 06:46:04;;;;;;;0.10;0.10;;;3.40;99.90;1.70;95676.00;;;;5034420;28;20191;-75
2022/11/25 06:48:34;;;;;;;0.10;0.10;;;3.40;99.90;1.70;95686.00;;;;5034065;28;20195;-75
2022/11/25 06:51:06;;;;;;;0.10;0.10;;;3.40;99.90;1.70;95723.00;;;;5034704;28;20198;-75
2022/11/25 06:53:35;;;;;;;0.10;0.10;;;3.50;99.90;1.70;95728.00;;;;5035457;28;20215;-75
2022/11/25 06:56:11;;;;;;;0.10;0.10;;;3.50;99.90;1.70;95756.00;;;;5034645;28;20674;-75
2022/11/25 06:58:40;;;;;;;0.10;0.10;;;3.50;99.90;1.80;95845.00;;;;5033750;28;20183;-75
2022/11/25 07:01:13;;;;;;;0.10;0.10;;;3.60;99.90;1.80;95856.00;;;;5034084;28;20198;-75
2022/11/25 07:03:44;;;;;;;0.10;0.10;;;3.60;99.90;2.00;95911.00;;;;5034579;28;20207;-73
2022/11/25 07:06:14;;;;;;;0.10;0.10;;;3.70;99.90;1.90;95936.00;;;;5034362;28;20190;-73
2022/11/25 07:08:43;;;;;;;0.10;0.10;;;3.70;99.90;2.00;95887.00;;;;5033985;28;20487;-73
2022/11/25 07:11:17;;;;;;;0.10;0.10;;;3.70;99.90;1.90;95870.00;;;;5049486;28;20203;-73
2022/11/25 07:13:46;;;;;;;0.05;0.05;;;3.70;99.90;2.00;95917.00;;;;5034126;28;20263;-73
2022/11/25 07:16:15;;;;;;;0.10;0.10;;;3.70;99.90;1.90;95796.00;;;;5034069;28;20195;-73
2022/11/25 07:18:44;;;;;;;0.10;0.10;;;3.60;99.90;2.00;95773.00;;;;5033170;28;20669;-73
2022/11/25 07:21:15;;;;;;;0.10;0.10;;;3.70;99.90;2.00;95820.00;;;;5034930;28;20215;-73
2022/11/25 07:23:46;;;;;;;0.10;0.10;;;3.70;99.90;2.00;95687.00;;;;5034208;28;20249;-73
2022/11/25 07:26:17;;;;;;;0.10;0.10;;;3.70;99.90;2.00;95763.00;;;;5034128;28;20187;-73
2022/11/25 07:28:46;;;;;;;0.10;0.10;;;3.80;99.90;2.10;95772.00;;;;5033834;28;20579;-73
2022/11/25 07:31:20;;;;;;;0.10;0.10;;;3.90;99.90;2.20;95803.00;;;;5034764;28;20252;-73
2022/11/25 07:33:58;;;;;;;0.10;0.10;;;4.00;99.90;2.30;95792.00;;;;5034209;28;20242;-73
2022/11/25 07:36:28;;;;;;;0.00;0.00;;;4.00;99.90;2.40;95815.00;;;;5034118;28;20195;-73
2022/11/25 07:38:58;;;;;;;0.10;0.10;;;4.10;99.90;2.40;95797.00;;;;5033808;28;20613;-73
2022/11/25 07:41:28;;;;;;;0.10;0.10;;;4.10;99.90;2.40;95825.00;;;;5033797;28;20183;-73
2022/11/25 07:43:59;;;;;;;0.10;0.10;;;4.10;99.90;2.50;95802.00;;;;5031949;28;20218;-73
2022/11/25 07:46:31;;;;;;;0.10;0.10;;;4.20;99.90;2.50;95811.00;;;;5048610;28;20217;-73
2022/11/25 07:49:05;;;;;;;0.20;0.20;;;4.20;99.90;2.60;95854.00;;;;5033367;28;20202;-74
2022/11/25 07:51:36;;;;;;;0.10;0.10;;;4.30;99.90;2.60;95813.00;;;;5033271;28;20187;-73
2022/11/25 07:54:08;;;;;;;0.10;0.10;;;4.30;99.90;2.70;95825.00;;;;5032892;28;20753;-73
2022/11/25 07:56:39;;;;;;;0.10;0.10;;;4.40;99.90;2.70;95882.00;;;;5033574;28;20230;-73
2022/11/25 07:59:12;;;;;;;0.10;0.10;;;4.40;99.90;2.80;95863.00;;;;5032979;28;20195;-73
2022/11/25 08:01:41;;;;;;;0.05;0.05;;;4.40;99.90;2.80;95888.00;;;;5033172;28;20253;-74
2022/11/25 08:04:13;;;;;;;0.00;0.00;;;4.50;99.90;2.90;95843.00;;;;5033517;28;20294;-73
2022/11/25 08:06:50;;;;;;;0.10;0.10;;;4.60;99.90;2.90;95939.00;;;;5033195;28;20195;-73
2022/11/25 08:09:24;;;;;;;0.10;0.10;;;4.60;99.90;2.80;95868.00;;;;5032982;28;20600;-74
2022/11/25 08:11:53;;;;;;;0.10;0.10;;;4.60;99.90;2.90;95951.00;;;;5031826;28;20253;-74
2022/11/25 08:14:21;;;;;;;0.03;0.03;;;4.60;99.90;3.00;95972.00;;;;5032686;28;20250;-74
2022/11/25 08:16:49;;;;;;;0.10;0.10;;;4.60;99.90;3.10;95951.00;;;;5033009;28;20198;-74
2022/11/25 08:19:19;;;;;;;0.10;0.10;;;4.70;99.90;3.10;95882.00;;;;5033038;28;20248;-73
2022/11/25 08:21:47;;;;;;;0.10;0.10;;;4.80;99.90;3.20;95928.00;;;;5032064;28;20211;-73
2022/11/25 08:24:18;;;;;;;0.00;0.00;;;4.90;99.90;3.40;95991.00;;;;5034296;28;20222;-73
2022/11/25 08:26:47;;;;;;;0.10;0.10;;;5.00;99.90;3.50;95949.00;;;;5032935;28;20245;-74
2022/11/25 08:29:19;;;;;;;0.10;0.10;;;5.10;99.90;3.50;96014.00;;;;5032455;28;20222;-73
2022/11/25 08:31:47;;;;;;;0.10;0.10;;;5.10;99.90;3.50;95996.00;;;;5032620;28;20194;-74
2022/11/25 08:34:22;;;;;;;0.10;0.10;;;5.20;99.90;3.50;95959.00;;;;5032513;28;20589;-73
2022/11/25 08:36:55;;;;;;;0.10;0.10;;;5.20;99.90;3.60;95940.00;;;;5031412;28;20202;-74
2022/11/25 08:39:23;;;;;;;0.10;0.10;;;5.20;99.90;3.60;95943.00;;;;5032027;28;20191;-74
2022/11/25 08:42:11;;;;;;;0.10;0.10;;;5.20;99.90;3.60;95953.00;;;;5032629;28;20197;-74
2022/11/25 08:44:39;;;;;;;0.10;0.10;;;5.30;99.90;3.70;95926.00;;;;5032177;28;20222;-74
2022/11/25 08:47:08;;;;;;;0.10;0.10;;;5.30;99.90;3.70;95925.00;;;;5032484;28;20534;-74
2022/11/25 08:49:38;;;;;;;0.10;0.10;;;5.40;99.90;3.80;95898.00;;;;5030973;28;20264;-73
2022/11/25 08:52:09;;;;;;;0.10;0.10;;;5.40;99.90;3.80;95908.00;;;;5032365;28;20191;-73
2022/11/25 08:54:38;;;;;;;0.05;0.05;;;5.50;99.90;3.80;95927.00;;;;5032257;28;20207;-73
2022/11/25 08:57:06;;;;;;;0.10;0.10;;;5.40;99.90;3.80;95908.00;;;;5032333;28;20681;-75
2022/11/25 08:59:35;;;;;;;0.08;0.08;;;5.50;99.90;3.80;95912.00;;;;5032100;28;20195;-72
2022/11/25 09:02:04;;;;;;;0.00;0.00;;;5.50;99.90;3.90;95880.00;;;;5031877;28;20218;-73
2022/11/25 09:04:32;;;;;;;0.10;0.10;;;5.50;99.90;3.90;95928.00;;;;5032169;28;20214;-73
2022/11/25 09:07:04;;;;;;;0.10;0.10;;;5.60;99.90;4.00;95923.00;;;;5032622;28;20202;-73
2022/11/25 09:09:33;;;;;;;0.03;0.03;;;5.60;99.90;4.10;95943.00;;;;5032353;28;20592;-73
2022/11/25 09:12:02;;;;;;;0.10;0.10;;;5.70;99.90;4.10;95913.00;;;;5032407;28;20199;-73
2022/11/25 09:14:30;;;;;;;0.08;0.08;;;5.70;99.90;4.20;95933.00;;;;5031817;28;20632;-73
2022/11/25 09:16:58;;;;;;;0.08;0.08;;;5.80;99.90;4.20;95914.00;;;;5031841;28;20183;-73
2022/11/25 09:19:26;;;;;;;0.00;0.00;;;5.80;99.90;4.20;95928.00;;;;5033867;28;20589;-73
2022/11/25 09:21:54;;;;;;;0.10;0.10;;;5.80;99.90;4.20;95906.00;;;;5034865;28;20219;-73
2022/11/25 09:24:23;;;;;;;0.10;0.10;;;5.90;99.90;4.30;95910.00;;;;5034345;28;20221;-73
2022/11/25 09:26:52;;;;;;;0.10;0.10;;;5.90;99.90;4.40;95937.00;;;;5032194;28;20229;-72
2022/11/25 09:29:20;;;;;;;0.10;0.10;;;6.00;99.90;4.40;95933.00;;;;5031590;28;20194;-73
2022/11/25 09:31:49;;;;;;;0.00;0.00;;;6.00;99.90;4.50;95959.00;;;;5031999;28;20659;-74
2022/11/25 09:34:22;;;;;;;0.10;0.10;;;6.10;99.90;4.50;95923.00;;;;5031693;28;20221;-73
2022/11/25 09:36:50;;;;;;;0.00;0.00;;;6.10;99.90;4.60;95828.00;;;;5031940;28;20229;-73
2022/11/25 09:39:18;;;;;;;0.00;0.00;;;6.20;99.90;4.60;95940.00;;;;5032863;28;20187;-73
2022/11/25 09:48:27;;;;;;;0.08;0.08;;;6.50;99.90;5.00;95964.00;;;;5031518;28;20195;-73
2022/11/25 09:51:10;;;;;;;0.00;0.00;;;6.60;99.90;5.20;95965.00;;;;5031769;28;20198;-73
2022/11/25 09:53:44;;;;;;;0.10;0.10;;;6.70;99.90;5.30;95977.00;;;;5031650;28;20219;-73
2022/11/25 09:56:31;;;;;;;0.10;0.10;;;6.90;99.90;5.40;95971.00;;;;5032130;28;20580;-73
2022/11/25 09:59:08;;;;;;;0.10;0.10;;;6.90;99.90;5.50;95961.00;;;;5031504;28;20219;-73
2022/11/25 10:01:47;;;;;;;0.10;0.10;;;7.00;99.90;5.50;95978.00;;;;5031828;28;20223;-75
2022/11/25 10:04:24;;;;;;;0.10;0.10;;;7.00;99.90;5.50;95996.00;;;;5036038;28;20721;-73
2022/11/25 10:06:59;;;;;;;0.00;0.00;;;7.00;99.90;5.60;96023.00;;;;5036003;28;20330;-75
2022/11/25 10:09:33;;;;;;;0.10;0.10;;;7.10;99.90;5.50;96007.00;;;;5035867;28;20198;-73
2022/11/25 10:12:13;;;;;;;0.10;0.10;;;7.10;99.90;5.60;95992.00;;;;5035855;28;20198;-72
2022/11/25 10:14:48;;;;;;;0.10;0.10;;;7.10;99.90;5.60;96011.00;;;;5035396;28;20278;-72
2022/11/25 10:17:33;;;;;;;0.10;0.10;;;7.10;99.90;5.60;95996.00;;;;5035540;28;20194;-75
2022/11/25 10:20:07;;;;;;;0.10;0.10;;;7.20;99.90;5.60;96018.00;;;;5035758;28;20203;-74
2022/11/25 10:22:40;;;;;;;0.10;0.10;;;7.20;99.90;5.70;96039.00;;;;5035267;28;20218;-74
2022/11/25 10:25:15;;;;;;;0.10;0.10;;;7.20;99.90;5.70;96021.00;;;;5035430;28;20187;-75
2022/11/25 10:27:50;;;;;;;0.10;0.10;;;7.30;99.90;5.80;96026.00;;;;5035842;28;20195;-74
2022/11/25 10:30:23;;;;;;;0.03;0.03;;;7.30;99.90;5.90;96047.00;;;;5036772;28;20207;-74
2022/11/25 10:33:01;;;;;;;0.10;0.10;;;7.40;99.90;5.90;96024.00;;;;5036705;28;20195;-74
2022/11/25 10:35:35;;;;;;;0.10;0.10;;;7.40;99.90;6.00;96044.00;;;;5035003;28;20202;-74
2022/11/25 10:38:11;;;;;;;0.10;0.10;;;7.50;99.90;6.10;96028.00;;;;5035250;28;20202;-72
2022/11/25 10:40:51;;;;;;;0.00;0.00;;;7.60;99.90;6.10;96026.00;;;;5035342;28;20195;-75
2022/11/25 10:43:19;;;;;;;0.10;0.10;;;7.60;99.90;6.10;96022.00;;;;5033614;28;20265;-75
2022/11/25 10:45:58;;;;;;;0.05;0.05;;;7.70;99.90;6.20;96019.00;;;;5034647;28;20249;-75
2022/11/25 10:48:54;;;;;;;0.10;0.10;;;7.70;99.90;6.30;96043.00;;;;5035155;28;20662;-72
2022/11/25 10:51:45;;;;;;;0.10;0.10;;;7.70;99.90;6.30;96055.00;;;;5034369;28;20249;-75
2022/11/25 10:54:18;;;;;;;0.10;0.10;;;7.80;99.90;6.10;96031.00;;;;5034251;28;20683;-72
2022/11/25 10:56:57;;;;;;;0.10;0.10;;;7.80;99.90;6.40;96052.00;;;;5035019;28;20217;-72
2022/11/25 10:59:30;;;;;;;0.10;0.10;;;7.90;99.90;6.40;96040.00;;;;5034539;28;20187;-72
2022/11/25 11:02:25;;;;;;;0.10;0.10;;;7.90;99.90;6.40;96060.00;;;;5034407;28;20702;-72
2022/11/25 11:05:01;;;;;;;0.10;0.10;;;7.90;99.90;6.50;96043.00;;;;5035440;28;20272;-72
2022/11/25 11:07:34;;;;;;;0.10;0.10;;;8.00;99.90;6.60;96000.00;;;;5033713;28;20610;-73
2022/11/25 11:10:18;;;;;;;0.10;0.10;;;8.10;99.90;6.80;96038.00;;;;5034729;28;20195;-73
2022/11/25 11:13:00;;;;;;;0.10;0.10;;;8.20;99.90;6.90;96111.00;;;;5034004;28;20198;-72
2022/11/25 11:15:31;;;;;;;0.10;0.10;;;8.40;99.90;7.10;96071.00;;;;5033998;28;20587;-73
2022/11/25 11:18:20;;;;;;;0.00;0.00;;;8.60;99.90;7.20;96045.00;;;;5033886;28;20663;-73
2022/11/25 11:20:52;;;;;;;0.10;0.10;;;8.70;99.90;7.20;96102.00;;;;5034235;28;20187;-72
2022/11/25 11:23:21;;;;;;;0.08;0.08;;;8.70;99.90;7.20;96018.00;;;;5033990;28;20718;-73
2022/11/25 11:26:02;;;;;;;0.10;0.10;;;8.70;99.90;7.10;96033.00;;;;5033715;28;20565;-73
2022/11/25 11:28:40;;;;;;;0.10;0.10;;;8.60;99.90;7.00;96037.00;;;;5034067;28;20237;-73
2022/11/25 11:31:19;;;;;;;0.08;0.08;;;8.50;99.90;7.00;96042.00;;;;5033842;28;20193;-74
2022/11/25 11:33:59;;;;;;;0.10;0.10;;;8.50;99.90;7.00;96027.00;;;;5033971;28;20261;-72
2022/11/25 11:36:44;;;;;;;0.10;0.10;;;8.50;99.90;7.00;96040.00;;;;5033957;28;20811;-72
2022/11/25 11:39:43;;;;;;;0.10;0.10;;;8.40;99.90;7.00;96078.00;;;;5033214;28;20191;-73
2022/11/25 11:42:27;;;;;;;0.10;0.10;;;8.50;99.90;7.20;96069.00;;;;5034390;28;20265;-72
2022/11/25 11:45:15;;;;;;;0.10;0.10;;;8.60;99.90;7.70;96090.00;;;;5033723;28;20256;-73
2022/11/25 11:48:04;;;;;;;0.10;0.10;;;9.00;99.90;8.70;96177.00;;;;5033874;28;20190;-72